SBNT/NAT METAR and TAF weather

Enter ICAO airport designator
Station Type Date Time Source
SBNT METAR 2019/10/23 03:00 UTC NOAA

SBNT 230300Z 18002KT 9999 SCT020 25/23 Q1012


Station Type Date Time Source
SBNT Decoded METAR 2019/10/23 03:00 UTC NOAA

Natal Aeroporto, Brazil (SBNT) 05-55S 035-15W 49M
Oct 22, 2019 - 11:00 PM EDT / 2019.10.23 0300 UTC
Wind: from the S (180 degrees) at 2 MPH (2 KT):0
Visibility: greater than 7 mile(s):0
Sky conditions: partly cloudy
Temperature: 77 F (25 C)
Dew Point: 73 F (23 C)
Relative Humidity: 88%
Pressure (altimeter): 29.88 in. Hg (1012 hPa)
ob: SBNT 230300Z 18002KT 9999 SCT020 25/23 Q1012
cycle: 3

Station Type Date Time Source
SBNT TAF 2019/10/23 00:33 UTC NOAA

TAF SBNT 222200Z 2300/2312 13010KT 9999 SCT020 TN24/2308Z TX28/2311Z
RMK PFM

Example: see airport list